createdAt,value
2022-09-15T00:00:33.047Z,57.06
2022-09-15T00:02:59.620Z,56.19
2022-09-15T00:05:26.267Z,55.98
2022-09-15T00:07:53.025Z,55.86
2022-09-15T00:10:19.757Z,55.51
2022-09-15T00:12:46.275Z,56.03
2022-09-15T00:15:12.760Z,55.77
2022-09-15T00:17:39.255Z,55.36
2022-09-15T00:20:06.094Z,55.43
2022-09-15T00:22:33.581Z,55.17
2022-09-15T00:24:59.975Z,55.49
2022-09-15T00:27:26.418Z,55.38
2022-09-15T00:29:53.159Z,55.96
2022-09-15T00:32:19.561Z,55.62
2022-09-15T00:34:46.092Z,55.33
2022-09-15T00:37:12.653Z,55.54
2022-09-15T00:39:39.610Z,54.58
2022-09-15T00:42:06.224Z,54.88
2022-09-15T00:44:32.753Z,56.50
2022-09-15T00:47:18.188Z,56.10
2022-09-15T00:49:45.674Z,55.85
2022-09-15T00:52:12.145Z,54.79
2022-09-15T00:54:38.742Z,55.26
2022-09-15T00:57:05.156Z,54.95
2022-09-15T00:59:34.287Z,54.65
2022-09-15T01:02:00.695Z,54.52
2022-09-15T01:04:28.595Z,54.62
2022-09-15T01:06:55.327Z,55.40
2022-09-15T01:09:21.858Z,55.21
2022-09-15T01:11:48.577Z,54.80
2022-09-15T01:14:15.235Z,54.76
2022-09-15T01:19:32.290Z,54.39
2022-09-15T01:21:59.092Z,54.14
2022-09-15T01:24:25.566Z,53.76
2022-09-15T01:26:52.389Z,54.69
2022-09-15T01:29:21.210Z,54.41
2022-09-15T01:31:48.381Z,54.83
2022-09-15T01:34:15.090Z,54.65
2022-09-15T01:36:41.572Z,55.07
2022-09-15T01:39:07.967Z,54.85
2022-09-15T01:41:34.661Z,54.22
2022-09-15T01:44:01.193Z,54.14
2022-09-15T01:46:27.664Z,54.31
2022-09-15T01:48:55.164Z,53.90
2022-09-15T01:51:21.657Z,54.00
2022-09-15T01:53:48.149Z,54.38
2022-09-15T01:56:14.917Z,54.27
2022-09-15T01:58:41.276Z,53.75
2022-09-15T02:01:07.863Z,53.89
2022-09-15T02:03:34.672Z,54.27
2022-09-15T02:06:01.407Z,54.26
2022-09-15T02:08:27.975Z,53.62
2022-09-15T02:10:55.653Z,54.84
2022-09-15T02:13:22.266Z,54.75
2022-09-15T02:15:48.635Z,54.18
2022-09-15T02:18:18.204Z,54.34
2022-09-15T02:20:44.559Z,53.92
2022-09-15T02:23:10.933Z,53.91
2022-09-15T02:25:37.588Z,53.80
2022-09-15T02:28:04.344Z,53.90
2022-09-15T02:30:30.891Z,53.74
2022-09-15T02:32:57.573Z,54.81
2022-09-15T02:35:24.111Z,53.56
2022-09-15T02:37:50.460Z,53.48
2022-09-15T02:40:17.190Z,53.11
2022-09-15T02:42:43.816Z,52.61
2022-09-15T02:45:10.493Z,53.67
2022-09-15T02:47:37.077Z,53.71
2022-09-15T02:50:03.564Z,53.76
2022-09-15T02:52:30.029Z,53.28
2022-09-15T02:54:56.998Z,53.33
2022-09-15T02:57:23.532Z,52.23
2022-09-15T02:59:49.951Z,53.44
2022-09-15T03:02:16.612Z,52.82
2022-09-15T03:04:42.982Z,52.37
2022-09-15T03:07:09.519Z,51.87
2022-09-15T03:09:35.992Z,51.89
2022-09-15T03:12:02.396Z,51.86
2022-09-15T03:14:28.920Z,52.31
2022-09-15T03:16:55.495Z,51.85
2022-09-15T03:19:21.983Z,51.63
2022-09-15T03:21:48.323Z,52.23
2022-09-15T03:24:14.723Z,51.59
2022-09-15T03:26:41.237Z,52.10
2022-09-15T03:29:07.797Z,52.10
2022-09-15T03:31:34.308Z,51.87
2022-09-15T03:34:00.804Z,52.05
2022-09-15T03:36:27.248Z,52.65
2022-09-15T03:38:54.074Z,52.73
2022-09-15T03:41:20.496Z,51.80
2022-09-15T03:43:47.030Z,52.00
2022-09-15T03:46:13.784Z,52.43
2022-09-15T03:48:40.342Z,51.64
2022-09-15T03:51:06.719Z,51.74
2022-09-15T03:53:33.465Z,51.50
2022-09-15T03:55:59.923Z,52.07
2022-09-15T03:58:30.516Z,52.05
2022-09-15T04:00:57.321Z,52.83
2022-09-15T04:03:23.660Z,52.55
2022-09-15T04:05:50.078Z,52.93
2022-09-15T04:08:16.625Z,52.79
2022-09-15T04:10:43.041Z,52.51
2022-09-15T04:13:09.493Z,52.39
2022-09-15T04:15:35.977Z,51.80
2022-09-15T04:18:02.533Z,51.79
2022-09-15T04:20:29.093Z,52.11
2022-09-15T04:22:55.629Z,52.07
2022-09-15T04:25:22.073Z,52.07
2022-09-15T04:27:48.686Z,51.96
2022-09-15T04:30:15.575Z,52.01
2022-09-15T04:32:41.963Z,51.31
2022-09-15T04:35:08.621Z,51.52
2022-09-15T04:37:35.115Z,51.48
2022-09-15T04:40:01.631Z,51.14
2022-09-15T04:42:28.110Z,51.66
2022-09-15T04:44:54.788Z,52.22
2022-09-15T04:47:21.321Z,52.14
2022-09-15T04:49:47.693Z,52.02
2022-09-15T04:52:14.196Z,51.62
2022-09-15T04:54:40.691Z,51.63
2022-09-15T04:57:07.126Z,51.20
2022-09-15T04:59:33.560Z,51.73
2022-09-15T05:02:00.387Z,51.83
2022-09-15T05:04:27.051Z,51.50
2022-09-15T05:06:53.824Z,51.53
2022-09-15T05:09:20.291Z,51.79
2022-09-15T05:11:46.699Z,51.22
2022-09-15T05:14:13.738Z,51.28
2022-09-15T05:16:40.342Z,51.20
2022-09-15T05:19:06.829Z,51.23
2022-09-15T05:21:33.507Z,51.21
2022-09-15T05:24:00.035Z,51.06
2022-09-15T05:26:26.547Z,50.99
2022-09-15T05:28:53.239Z,51.14
2022-09-15T05:31:19.862Z,51.07
2022-09-15T05:33:46.724Z,50.80
2022-09-15T05:36:13.332Z,51.17
2022-09-15T05:38:39.725Z,50.55
2022-09-15T05:41:06.084Z,50.21
2022-09-15T05:43:37.054Z,50.46
2022-09-15T05:46:04.238Z,50.88
2022-09-15T05:48:30.742Z,50.70
2022-09-15T05:50:57.292Z,50.58
2022-09-15T05:53:23.779Z,51.02
2022-09-15T05:55:50.259Z,51.00
2022-09-15T05:58:16.680Z,50.81
2022-09-15T06:00:43.612Z,50.44
2022-09-15T06:03:10.146Z,50.33
2022-09-15T06:05:37.381Z,51.10
2022-09-15T06:08:04.122Z,50.77
2022-09-15T06:10:31.003Z,50.19
2022-09-15T06:12:57.824Z,49.71
2022-09-15T06:15:24.867Z,49.67
2022-09-15T06:17:51.311Z,49.52
2022-09-15T06:20:18.047Z,50.24
2022-09-15T06:22:44.452Z,50.79
2022-09-15T06:25:10.945Z,50.03
2022-09-15T06:27:38.016Z,50.36
2022-09-15T06:30:05.461Z,50.68
2022-09-15T06:32:32.458Z,49.81
2022-09-15T06:34:59.126Z,49.35
2022-09-15T06:37:25.678Z,49.51
2022-09-15T06:39:52.264Z,50.72
2022-09-15T06:42:19.634Z,50.22
2022-09-15T06:44:45.971Z,49.81
2022-09-15T06:47:12.341Z,49.98
2022-09-15T06:49:39.271Z,49.19
2022-09-15T06:52:05.607Z,49.11
2022-09-15T06:54:31.994Z,48.56
2022-09-15T06:56:58.578Z,48.34
2022-09-15T06:59:24.927Z,48.12
2022-09-15T07:01:51.340Z,48.19
2022-09-15T07:04:17.762Z,48.33
2022-09-15T07:06:44.075Z,48.33
2022-09-15T07:09:10.412Z,48.16
2022-09-15T07:11:37.159Z,47.90
2022-09-15T07:14:03.527Z,47.31
2022-09-15T07:16:30.039Z,47.98
2022-09-15T07:18:56.744Z,47.61
2022-09-15T07:21:23.117Z,46.97
2022-09-15T07:23:49.455Z,46.88
2022-09-15T07:26:16.050Z,46.56
2022-09-15T07:28:42.437Z,46.38
2022-09-15T07:31:09.169Z,46.89
2022-09-15T07:33:38.011Z,46.12
2022-09-15T07:36:04.455Z,46.61
2022-09-15T07:38:30.882Z,46.11
2022-09-15T07:40:57.777Z,45.87
2022-09-15T07:43:25.479Z,45.93
2022-09-15T07:45:51.942Z,46.29
2022-09-15T07:48:22.167Z,46.67
2022-09-15T07:50:51.042Z,48.03
2022-09-15T07:53:17.812Z,46.66
2022-09-15T07:55:44.437Z,46.71
2022-09-15T07:58:10.776Z,46.51
2022-09-15T08:00:37.347Z,46.33
2022-09-15T08:03:04.064Z,46.11
2022-09-15T08:05:31.207Z,46.51
2022-09-15T08:07:59.291Z,46.15
2022-09-15T08:10:25.875Z,45.72
2022-09-15T08:12:52.279Z,45.61
2022-09-15T08:15:18.815Z,45.80
2022-09-15T08:17:45.564Z,45.59
2022-09-15T08:20:11.956Z,45.58
2022-09-15T08:22:38.410Z,44.91
2022-09-15T08:25:05.092Z,45.50
2022-09-15T08:27:31.550Z,45.61
2022-09-15T08:29:58.019Z,45.16
2022-09-15T08:32:24.456Z,45.90
2022-09-15T08:34:51.052Z,45.60
2022-09-15T08:37:17.702Z,46.56
2022-09-15T08:39:44.491Z,47.29
2022-09-15T08:42:18.446Z,46.69
2022-09-15T08:44:45.320Z,46.01
2022-09-15T08:47:11.768Z,46.04
2022-09-15T08:49:51.218Z,46.46
2022-09-15T08:52:18.278Z,46.04
2022-09-15T08:54:44.984Z,46.04
2022-09-15T08:57:11.562Z,46.51
2022-09-15T08:59:38.138Z,46.60
2022-09-15T09:02:04.856Z,47.40
2022-09-15T09:04:31.288Z,48.18
2022-09-15T09:06:59.804Z,47.83
2022-09-15T09:09:26.175Z,46.96
2022-09-15T09:11:52.560Z,45.78
2022-09-15T09:14:20.129Z,45.61
2022-09-15T09:16:46.680Z,45.59
2022-09-15T09:19:13.060Z,44.90
2022-09-15T09:21:39.811Z,45.78
2022-09-15T09:24:06.502Z,45.53
2022-09-15T09:26:33.365Z,46.45
2022-09-15T09:29:00.298Z,47.18
2022-09-15T09:31:27.052Z,47.55
2022-09-15T09:33:53.703Z,47.77
2022-09-15T09:36:20.886Z,47.70
2022-09-15T09:38:47.397Z,48.00
2022-09-15T09:41:14.082Z,48.44
2022-09-15T09:43:42.115Z,47.50
2022-09-15T09:46:08.763Z,48.24
2022-09-15T09:48:35.173Z,48.53
2022-09-15T09:51:02.025Z,47.98
2022-09-15T09:53:28.458Z,48.65
2022-09-15T09:55:54.863Z,47.71
2022-09-15T09:58:21.794Z,48.61
2022-09-15T10:00:48.329Z,47.94
2022-09-15T10:03:17.068Z,48.29
2022-09-15T10:05:43.673Z,47.90
2022-09-15T10:08:10.071Z,48.61
2022-09-15T10:10:36.588Z,48.74
2022-09-15T10:13:03.420Z,50.19
2022-09-15T10:15:30.297Z,50.01
2022-09-15T10:17:56.843Z,50.14
2022-09-15T10:20:23.294Z,49.42
2022-09-15T10:22:49.716Z,48.96
2022-09-15T10:25:16.145Z,48.80
2022-09-15T10:27:42.619Z,49.50
2022-09-15T10:30:09.088Z,50.04
2022-09-15T10:32:35.601Z,49.97
2022-09-15T10:35:02.263Z,50.30
2022-09-15T10:37:28.632Z,49.46
2022-09-15T10:39:56.201Z,50.34
2022-09-15T10:42:22.997Z,50.21
2022-09-15T10:44:49.429Z,51.23
2022-09-15T10:47:16.037Z,49.46
2022-09-15T10:49:42.604Z,50.44
2022-09-15T10:52:09.056Z,50.25
2022-09-15T10:54:35.574Z,50.82
2022-09-15T10:57:03.050Z,50.54
2022-09-15T10:59:29.540Z,50.89
2022-09-15T11:01:56.172Z,51.01
2022-09-15T11:04:23.059Z,50.57
2022-09-15T11:06:49.495Z,50.16
2022-09-15T11:09:18.235Z,50.34
2022-09-15T11:11:44.881Z,49.65
2022-09-15T11:14:11.367Z,50.20
2022-09-15T11:16:40.713Z,49.61
2022-09-15T11:19:07.545Z,49.77
2022-09-15T11:21:33.972Z,50.17
2022-09-15T11:24:00.447Z,49.93
2022-09-15T11:26:27.341Z,49.45
2022-09-15T11:28:53.918Z,50.75
2022-09-15T11:31:20.598Z,50.09
2022-09-15T11:33:47.635Z,49.63
2022-09-15T11:36:14.055Z,48.78
2022-09-15T11:38:40.492Z,48.71
2022-09-15T11:41:07.320Z,48.46
2022-09-15T11:43:33.892Z,49.20
2022-09-15T11:46:00.572Z,48.94
2022-09-15T11:48:27.026Z,49.47
2022-09-15T11:50:53.410Z,49.53
2022-09-15T11:53:20.085Z,50.00
2022-09-15T11:55:46.693Z,50.55
2022-09-15T11:58:13.233Z,51.57
2022-09-15T12:00:40.925Z,51.58
2022-09-15T12:03:07.860Z,51.20
2022-09-15T12:05:34.593Z,51.83
2022-09-15T12:08:00.981Z,52.47
2022-09-15T12:10:27.397Z,51.85
2022-09-15T12:12:53.834Z,52.05
2022-09-15T12:15:20.449Z,51.56
2022-09-15T12:17:47.503Z,51.68
2022-09-15T12:20:14.158Z,51.42
2022-09-15T12:22:40.674Z,51.14
2022-09-15T12:25:07.462Z,51.42
2022-09-15T12:27:34.075Z,51.05
2022-09-15T12:30:00.507Z,51.24
2022-09-15T12:32:31.794Z,51.32
2022-09-15T12:34:58.161Z,51.27
2022-09-15T12:37:24.747Z,51.34
2022-09-15T12:39:51.446Z,51.36
2022-09-15T12:42:17.923Z,51.32
2022-09-15T12:44:44.342Z,51.44
2022-09-15T12:47:11.884Z,51.93
2022-09-15T12:49:38.385Z,52.30
2022-09-15T12:52:06.834Z,53.16
2022-09-15T12:54:33.408Z,52.39
2022-09-15T12:56:59.899Z,52.46
2022-09-15T12:59:26.342Z,51.99
2022-09-15T13:01:52.999Z,52.18
2022-09-15T13:04:20.106Z,52.12
2022-09-15T13:06:46.549Z,52.23
2022-09-15T13:09:13.109Z,51.59
2022-09-15T13:11:40.282Z,51.01
2022-09-15T13:14:06.823Z,50.51
2022-09-15T13:16:33.460Z,50.83
2022-09-15T13:18:59.964Z,50.07
2022-09-15T13:21:26.336Z,50.20
2022-09-15T13:23:53.093Z,50.28
2022-09-15T13:26:19.505Z,50.04
2022-09-15T13:28:45.911Z,49.97
2022-09-15T13:31:12.506Z,50.33
2022-09-15T13:36:26.587Z,49.92
2022-09-15T13:38:53.185Z,49.29
2022-09-15T13:41:19.512Z,49.60
2022-09-15T13:43:46.195Z,49.23
2022-09-15T13:46:12.743Z,49.73
2022-09-15T13:48:39.161Z,49.21
2022-09-15T13:51:06.037Z,49.58
2022-09-15T13:53:32.469Z,49.05
2022-09-15T13:55:58.867Z,49.32
2022-09-15T14:01:12.487Z,48.98
2022-09-15T14:03:39.232Z,47.89
2022-09-15T14:06:05.708Z,48.26
2022-09-15T14:08:32.153Z,48.25
2022-09-15T14:10:58.898Z,47.91
2022-09-15T14:13:25.236Z,49.32
2022-09-15T14:15:51.672Z,49.00
2022-09-15T14:18:18.389Z,48.91
2022-09-15T14:20:44.764Z,48.95
2022-09-15T14:23:11.171Z,48.67
2022-09-15T14:25:37.941Z,50.06
2022-09-15T14:28:04.334Z,50.02
2022-09-15T14:30:30.721Z,49.90
2022-09-15T14:32:57.549Z,49.08
2022-09-15T14:35:24.046Z,49.45
2022-09-15T14:37:50.404Z,49.22
2022-09-15T14:40:17.490Z,49.09
2022-09-15T14:42:43.936Z,48.69
2022-09-15T14:47:57.142Z,48.29
2022-09-15T14:50:23.945Z,47.68
2022-09-15T14:52:50.376Z,47.42
2022-09-15T14:55:17.253Z,47.40
2022-09-15T15:00:11.119Z,49.72
2022-09-15T15:02:38.007Z,50.43
2022-09-15T15:05:05.588Z,52.48
2022-09-15T15:07:32.326Z,53.65
2022-09-15T15:10:01.289Z,52.26
2022-09-15T15:12:28.071Z,51.87
2022-09-15T15:14:54.527Z,53.60
2022-09-15T15:17:21.394Z,53.56
2022-09-15T15:19:47.895Z,54.22
2022-09-15T15:22:14.455Z,52.83
2022-09-15T15:24:42.014Z,52.30
2022-09-15T15:27:08.505Z,51.79
2022-09-15T15:29:37.508Z,52.48
2022-09-15T15:32:04.676Z,52.80
2022-09-15T15:34:31.258Z,52.65
2022-09-15T15:36:57.787Z,51.43
2022-09-15T15:39:25.331Z,50.88
2022-09-15T15:41:51.945Z,49.95
2022-09-15T15:44:18.492Z,50.72
2022-09-15T15:46:45.652Z,50.76
2022-09-15T15:49:12.141Z,50.46
2022-09-15T15:51:38.833Z,50.42
2022-09-15T15:54:05.692Z,51.65
2022-09-15T15:56:37.139Z,52.98
2022-09-15T15:59:04.254Z,52.82
2022-09-15T16:01:31.001Z,51.04
2022-09-15T16:03:57.410Z,49.94
2022-09-15T16:06:23.766Z,50.05
2022-09-15T16:08:50.307Z,48.51
2022-09-15T16:11:16.648Z,46.82
2022-09-15T16:13:43.034Z,48.17
2022-09-15T16:16:09.718Z,47.17
2022-09-15T16:18:36.084Z,47.55
2022-09-15T16:21:02.469Z,48.06
2022-09-15T16:23:28.865Z,47.50
2022-09-15T16:25:55.210Z,46.41
2022-09-15T16:28:21.598Z,47.50
2022-09-15T16:30:48.688Z,46.70
2022-09-15T16:33:15.063Z,47.99
2022-09-15T16:35:41.496Z,47.47
2022-09-15T16:38:07.937Z,47.78
2022-09-15T16:40:34.347Z,48.84
2022-09-15T16:43:00.810Z,48.88
2022-09-15T16:45:27.399Z,48.55
2022-09-15T16:47:53.777Z,48.22
2022-09-15T16:50:20.233Z,48.05
2022-09-15T16:52:47.285Z,48.34
2022-09-15T16:55:13.760Z,47.85
2022-09-15T16:57:40.292Z,48.15
2022-09-15T17:00:07.149Z,48.05
2022-09-15T17:02:34.653Z,47.07
2022-09-15T17:05:05.363Z,47.10
2022-09-15T17:07:32.210Z,48.69
2022-09-15T17:09:59.083Z,47.75
2022-09-15T17:12:25.817Z,47.47
2022-09-15T17:14:52.569Z,47.87
2022-09-15T17:17:18.986Z,48.24
2022-09-15T17:19:45.406Z,47.52
2022-09-15T17:22:12.105Z,48.59
2022-09-15T17:24:38.780Z,48.34
2022-09-15T17:27:05.175Z,48.71
2022-09-15T17:29:32.488Z,48.47
2022-09-15T17:31:59.266Z,48.30
2022-09-15T17:34:25.749Z,48.65
2022-09-15T17:36:52.477Z,48.52
2022-09-15T17:39:20.254Z,48.32
2022-09-15T17:41:46.696Z,48.40
2022-09-15T17:44:13.501Z,48.73
2022-09-15T17:46:40.144Z,48.98
2022-09-15T17:49:06.931Z,50.83
2022-09-15T17:51:33.540Z,52.10
2022-09-15T17:54:00.026Z,51.69
2022-09-15T17:56:26.616Z,52.35
2022-09-15T17:58:55.795Z,51.67
2022-09-15T18:01:22.829Z,51.50
2022-09-15T18:03:49.575Z,50.76
2022-09-15T18:06:16.551Z,50.38
2022-09-15T18:08:43.429Z,50.91
2022-09-15T18:11:10.004Z,50.38
2022-09-15T18:13:37.141Z,51.13
2022-09-15T18:16:03.787Z,52.11
2022-09-15T18:18:30.709Z,51.60
2022-09-15T18:20:57.871Z,50.89
2022-09-15T18:23:24.833Z,51.52
2022-09-15T18:25:52.559Z,51.10
2022-09-15T18:28:19.465Z,51.27
2022-09-15T18:30:46.252Z,51.29
2022-09-15T18:33:13.124Z,51.45
2022-09-15T18:35:39.858Z,50.90
2022-09-15T18:38:06.608Z,50.77
2022-09-15T18:40:33.359Z,50.74
2022-09-15T18:43:00.292Z,50.76
2022-09-15T18:45:27.484Z,51.00
2022-09-15T18:47:55.316Z,50.76
2022-09-15T18:50:22.000Z,51.22
2022-09-15T18:52:49.896Z,51.20
2022-09-15T18:55:16.594Z,51.01
2022-09-15T18:57:43.618Z,50.99
2022-09-15T19:00:10.452Z,53.22
2022-09-15T19:02:37.501Z,52.90
2022-09-15T19:05:04.514Z,52.74
2022-09-15T19:07:31.410Z,51.94
2022-09-15T19:09:58.370Z,52.41
2022-09-15T19:12:25.307Z,52.64
2022-09-15T19:14:52.231Z,52.70
2022-09-15T19:17:19.246Z,52.18
2022-09-15T19:19:46.115Z,52.62
2022-09-15T19:22:15.104Z,51.96
2022-09-15T19:24:41.949Z,54.11
2022-09-15T19:27:09.153Z,54.19
2022-09-15T19:29:36.341Z,52.94
2022-09-15T19:32:03.317Z,53.16
2022-09-15T19:34:32.376Z,52.31
2022-09-15T19:36:59.213Z,53.06
2022-09-15T19:39:28.283Z,55.10
2022-09-15T19:41:55.431Z,53.68
2022-09-15T19:44:22.122Z,53.24
2022-09-15T19:46:48.871Z,54.39
2022-09-15T19:49:15.820Z,53.14
2022-09-15T19:51:42.762Z,54.20
2022-09-15T19:54:09.463Z,54.65
2022-09-15T19:56:36.444Z,54.96
2022-09-15T19:59:03.003Z,54.66
2022-09-15T20:01:29.674Z,53.90
2022-09-15T20:09:25.097Z,54.03
2022-09-15T20:11:51.479Z,53.91
2022-09-15T20:14:20.168Z,54.69
2022-09-15T20:16:46.986Z,55.05
2022-09-15T20:19:13.510Z,53.92
2022-09-15T20:21:50.850Z,54.74
2022-09-15T20:24:19.333Z,56.27
2022-09-15T20:26:45.725Z,56.20
2022-09-15T20:29:12.101Z,55.46
2022-09-15T20:31:38.564Z,55.17
2022-09-15T20:34:04.924Z,56.57
2022-09-15T20:36:31.388Z,55.97
2022-09-15T20:38:58.425Z,58.50
2022-09-15T20:41:24.885Z,57.61
2022-09-15T20:43:51.478Z,57.99
2022-09-15T20:46:18.211Z,57.45
2022-09-15T20:48:44.636Z,58.16
2022-09-15T20:51:11.041Z,58.46
2022-09-15T20:53:37.891Z,57.54
2022-09-15T20:56:04.305Z,58.41
2022-09-15T20:58:30.782Z,60.12
2022-09-15T21:00:57.306Z,59.66
2022-09-15T21:03:23.931Z,59.26
2022-09-15T21:05:50.403Z,59.71
2022-09-15T21:08:17.274Z,60.48
2022-09-15T21:10:43.698Z,65.82
2022-09-15T21:13:10.097Z,62.63
2022-09-15T21:15:36.507Z,63.45
2022-09-15T21:18:05.020Z,61.55
2022-09-15T21:20:33.837Z,62.09
2022-09-15T21:23:00.381Z,62.28
2022-09-15T21:25:27.096Z,62.88
2022-09-15T21:27:53.660Z,63.63
2022-09-15T21:30:20.243Z,66.64
2022-09-15T21:32:46.828Z,67.72
2022-09-15T21:35:13.389Z,64.51
2022-09-15T21:37:40.341Z,65.77
2022-09-15T21:40:08.415Z,65.69
2022-09-15T21:42:35.491Z,65.12
2022-09-15T21:45:02.197Z,66.45
2022-09-15T21:47:28.659Z,63.50
2022-09-15T21:49:55.437Z,63.76
2022-09-15T21:52:22.265Z,61.65
2022-09-15T21:54:49.670Z,61.96
2022-09-15T21:57:16.399Z,60.14
2022-09-15T21:59:43.028Z,61.35
2022-09-15T22:02:09.585Z,59.52
2022-09-15T22:04:36.006Z,58.22
2022-09-15T22:07:02.995Z,58.61
2022-09-15T22:09:29.404Z,57.14
2022-09-15T22:11:56.462Z,57.35
2022-09-15T22:14:23.188Z,56.74
2022-09-15T22:16:49.749Z,56.11
2022-09-15T22:19:16.651Z,55.58
2022-09-15T22:21:43.077Z,55.27
2022-09-15T22:24:09.797Z,56.92
2022-09-15T22:26:36.277Z,57.80
2022-09-15T22:29:03.131Z,56.24
2022-09-15T22:31:32.121Z,56.24
2022-09-15T22:33:58.651Z,55.66
2022-09-15T22:36:28.900Z,56.02
2022-09-15T22:38:58.402Z,55.29
2022-09-15T22:41:24.795Z,55.88
2022-09-15T22:43:51.752Z,55.80
2022-09-15T22:46:18.189Z,57.98
2022-09-15T22:48:45.885Z,57.03
2022-09-15T22:51:12.315Z,58.12
2022-09-15T22:53:38.806Z,56.80
2022-09-15T22:56:05.639Z,56.91
2022-09-15T22:58:32.196Z,56.98
2022-09-15T23:00:58.971Z,55.58
2022-09-15T23:03:25.842Z,56.09
2022-09-15T23:05:52.223Z,56.16
2022-09-15T23:08:21.296Z,55.48
2022-09-15T23:10:48.127Z,55.50
2022-09-15T23:13:14.521Z,57.42
2022-09-15T23:15:41.911Z,56.32
2022-09-15T23:18:08.453Z,56.61
2022-09-15T23:20:34.894Z,57.19
2022-09-15T23:23:01.585Z,57.78
2022-09-15T23:25:28.228Z,57.09
2022-09-15T23:27:54.770Z,57.34
2022-09-15T23:30:21.759Z,56.49
2022-09-15T23:32:48.470Z,57.07
2022-09-15T23:35:14.888Z,55.75
2022-09-15T23:37:41.344Z,54.71
2022-09-15T23:40:08.078Z,53.87
2022-09-15T23:42:37.030Z,54.58
2022-09-15T23:45:03.472Z,53.84
2022-09-15T23:47:30.665Z,53.48
2022-09-15T23:49:57.119Z,54.33
2022-09-15T23:52:23.848Z,54.22
2022-09-15T23:54:50.502Z,53.49
2022-09-15T23:57:16.989Z,53.90
2022-09-15T23:59:43.447Z,55.44
